sensor_id;sensor_type;location;lat;lon;timestamp;P1;durP1;ratioP1;P2;durP2;ratioP2
24567;SDS011;12731;52.182;8.716;2024-01-30T00:00:41;17.30;;;12.18;;
24567;SDS011;12731;52.182;8.716;2024-01-30T00:03:07;17.38;;;12.70;;
24567;SDS011;12731;52.182;8.716;2024-01-30T00:05:34;16.90;;;12.48;;
24567;SDS011;12731;52.182;8.716;2024-01-30T00:08:00;17.23;;;12.73;;
24567;SDS011;12731;52.182;8.716;2024-01-30T00:10:28;19.23;;;13.38;;
24567;SDS011;12731;52.182;8.716;2024-01-30T00:12:54;16.95;;;12.75;;
24567;SDS011;12731;52.182;8.716;2024-01-30T00:15:21;17.83;;;12.70;;
24567;SDS011;12731;52.182;8.716;2024-01-30T00:17:47;15.13;;;12.13;;
24567;SDS011;12731;52.182;8.716;2024-01-30T00:20:14;18.02;;;13.45;;
24567;SDS011;12731;52.182;8.716;2024-01-30T00:22:41;17.38;;;13.05;;
24567;SDS011;12731;52.182;8.716;2024-01-30T00:25:07;16.73;;;12.27;;
24567;SDS011;12731;52.182;8.716;2024-01-30T00:27:34;18.88;;;13.10;;
24567;SDS011;12731;52.182;8.716;2024-01-30T00:30:00;15.45;;;12.55;;
24567;SDS011;12731;52.182;8.716;2024-01-30T00:32:26;19.77;;;13.27;;
24567;SDS011;12731;52.182;8.716;2024-01-30T00:34:53;19.15;;;12.93;;
24567;SDS011;12731;52.182;8.716;2024-01-30T00:37:20;14.93;;;11.60;;
24567;SDS011;12731;52.182;8.716;2024-01-30T00:39:46;16.98;;;13.10;;
24567;SDS011;12731;52.182;8.716;2024-01-30T00:42:13;16.10;;;13.13;;
24567;SDS011;12731;52.182;8.716;2024-01-30T00:44:39;17.98;;;12.63;;
24567;SDS011;12731;52.182;8.716;2024-01-30T00:47:06;18.83;;;13.77;;
24567;SDS011;12731;52.182;8.716;2024-01-30T00:49:32;18.80;;;14.68;;
24567;SDS011;12731;52.182;8.716;2024-01-30T00:51:59;19.50;;;14.98;;
24567;SDS011;12731;52.182;8.716;2024-01-30T00:54:25;19.98;;;14.45;;
24567;SDS011;12731;52.182;8.716;2024-01-30T00:56:52;17.92;;;13.75;;
24567;SDS011;12731;52.182;8.716;2024-01-30T00:59:18;20.30;;;14.25;;
24567;SDS011;12731;52.182;8.716;2024-01-30T01:01:45;17.80;;;13.65;;
24567;SDS011;12731;52.182;8.716;2024-01-30T01:04:12;20.77;;;14.38;;
24567;SDS011;12731;52.182;8.716;2024-01-30T01:06:38;17.13;;;14.13;;
24567;SDS011;12731;52.182;8.716;2024-01-30T01:09:05;19.45;;;14.70;;
24567;SDS011;12731;52.182;8.716;2024-01-30T01:11:31;19.58;;;14.18;;
24567;SDS011;12731;52.182;8.716;2024-01-30T01:13:58;17.23;;;13.93;;
24567;SDS011;12731;52.182;8.716;2024-01-30T01:16:24;18.77;;;13.55;;
24567;SDS011;12731;52.182;8.716;2024-01-30T01:18:51;18.92;;;14.35;;
24567;SDS011;12731;52.182;8.716;2024-01-30T01:21:17;18.70;;;13.90;;
24567;SDS011;12731;52.182;8.716;2024-01-30T01:23:44;17.15;;;13.60;;
24567;SDS011;12731;52.182;8.716;2024-01-30T01:26:10;20.65;;;14.98;;
24567;SDS011;12731;52.182;8.716;2024-01-30T01:28:36;16.73;;;12.63;;
24567;SDS011;12731;52.182;8.716;2024-01-30T01:31:03;20.42;;;13.20;;
24567;SDS011;12731;52.182;8.716;2024-01-30T01:33:32;18.13;;;14.07;;
24567;SDS011;12731;52.182;8.716;2024-01-30T01:35:59;19.05;;;14.02;;
24567;SDS011;12731;52.182;8.716;2024-01-30T01:38:28;21.60;;;14.55;;
24567;SDS011;12731;52.182;8.716;2024-01-30T01:40:55;23.67;;;15.15;;
24567;SDS011;12731;52.182;8.716;2024-01-30T01:43:21;20.50;;;14.10;;
24567;SDS011;12731;52.182;8.716;2024-01-30T01:45:48;22.65;;;14.88;;
24567;SDS011;12731;52.182;8.716;2024-01-30T01:48:15;22.17;;;14.32;;
24567;SDS011;12731;52.182;8.716;2024-01-30T01:50:42;19.73;;;14.38;;
24567;SDS011;12731;52.182;8.716;2024-01-30T01:53:09;18.63;;;14.82;;
24567;SDS011;12731;52.182;8.716;2024-01-30T01:55:35;18.90;;;13.95;;
24567;SDS011;12731;52.182;8.716;2024-01-30T01:58:02;22.35;;;14.48;;
24567;SDS011;12731;52.182;8.716;2024-01-30T02:00:29;20.95;;;14.02;;
24567;SDS011;12731;52.182;8.716;2024-01-30T02:02:55;20.05;;;13.77;;
24567;SDS011;12731;52.182;8.716;2024-01-30T02:05:22;14.98;;;11.57;;
24567;SDS011;12731;52.182;8.716;2024-01-30T02:07:51;15.82;;;11.70;;
24567;SDS011;12731;52.182;8.716;2024-01-30T02:10:17;16.75;;;12.27;;
24567;SDS011;12731;52.182;8.716;2024-01-30T02:12:44;13.95;;;11.18;;
24567;SDS011;12731;52.182;8.716;2024-01-30T02:15:13;16.83;;;11.75;;
24567;SDS011;12731;52.182;8.716;2024-01-30T02:17:39;14.02;;;10.73;;
24567;SDS011;12731;52.182;8.716;2024-01-30T02:20:06;12.82;;;10.75;;
24567;SDS011;12731;52.182;8.716;2024-01-30T02:22:33;14.32;;;11.15;;
24567;SDS011;12731;52.182;8.716;2024-01-30T02:25:01;14.18;;;10.52;;
24567;SDS011;12731;52.182;8.716;2024-01-30T02:27:27;14.27;;;10.20;;
24567;SDS011;12731;52.182;8.716;2024-01-30T02:29:54;14.18;;;10.85;;
24567;SDS011;12731;52.182;8.716;2024-01-30T02:32:20;12.48;;;10.50;;
24567;SDS011;12731;52.182;8.716;2024-01-30T02:34:46;15.57;;;12.00;;
24567;SDS011;12731;52.182;8.716;2024-01-30T02:37:13;19.70;;;13.57;;
24567;SDS011;12731;52.182;8.716;2024-01-30T02:39:39;16.52;;;12.98;;
24567;SDS011;12731;52.182;8.716;2024-01-30T02:42:06;14.40;;;10.65;;
24567;SDS011;12731;52.182;8.716;2024-01-30T02:44:32;16.95;;;12.00;;
24567;SDS011;12731;52.182;8.716;2024-01-30T02:46:59;16.95;;;12.90;;
24567;SDS011;12731;52.182;8.716;2024-01-30T02:49:25;16.15;;;11.43;;
24567;SDS011;12731;52.182;8.716;2024-01-30T02:51:53;15.32;;;11.55;;
24567;SDS011;12731;52.182;8.716;2024-01-30T02:54:20;19.52;;;13.18;;
24567;SDS011;12731;52.182;8.716;2024-01-30T02:56:46;17.85;;;13.30;;
24567;SDS011;12731;52.182;8.716;2024-01-30T02:59:14;18.27;;;13.60;;
24567;SDS011;12731;52.182;8.716;2024-01-30T03:01:43;17.20;;;13.05;;
24567;SDS011;12731;52.182;8.716;2024-01-30T03:04:11;15.15;;;11.65;;
24567;SDS011;12731;52.182;8.716;2024-01-30T03:06:37;19.45;;;15.02;;
24567;SDS011;12731;52.182;8.716;2024-01-30T03:09:04;21.05;;;13.82;;
24567;SDS011;12731;52.182;8.716;2024-01-30T03:11:31;16.13;;;11.50;;
24567;SDS011;12731;52.182;8.716;2024-01-30T03:13:57;18.63;;;12.95;;
24567;SDS011;12731;52.182;8.716;2024-01-30T03:16:24;22.02;;;14.30;;
24567;SDS011;12731;52.182;8.716;2024-01-30T03:18:50;19.80;;;13.68;;
24567;SDS011;12731;52.182;8.716;2024-01-30T03:21:17;18.83;;;14.23;;
24567;SDS011;12731;52.182;8.716;2024-01-30T03:23:43;24.23;;;14.52;;
24567;SDS011;12731;52.182;8.716;2024-01-30T03:26:10;19.63;;;14.00;;
24567;SDS011;12731;52.182;8.716;2024-01-30T03:28:38;19.08;;;13.95;;
24567;SDS011;12731;52.182;8.716;2024-01-30T03:31:05;19.73;;;13.93;;
24567;SDS011;12731;52.182;8.716;2024-01-30T03:33:31;19.08;;;13.43;;
24567;SDS011;12731;52.182;8.716;2024-01-30T03:36:02;19.38;;;13.60;;
24567;SDS011;12731;52.182;8.716;2024-01-30T03:38:29;18.05;;;13.25;;
24567;SDS011;12731;52.182;8.716;2024-01-30T03:40:55;20.25;;;13.50;;
24567;SDS011;12731;52.182;8.716;2024-01-30T03:43:22;18.27;;;12.75;;
24567;SDS011;12731;52.182;8.716;2024-01-30T03:45:48;20.58;;;13.52;;
24567;SDS011;12731;52.182;8.716;2024-01-30T03:48:15;18.55;;;12.75;;
24567;SDS011;12731;52.182;8.716;2024-01-30T03:50:41;18.23;;;12.07;;
24567;SDS011;12731;52.182;8.716;2024-01-30T03:53:08;16.45;;;12.15;;
24567;SDS011;12731;52.182;8.716;2024-01-30T03:55:34;20.40;;;12.43;;
24567;SDS011;12731;52.182;8.716;2024-01-30T03:58:01;16.70;;;12.50;;
24567;SDS011;12731;52.182;8.716;2024-01-30T04:00:27;16.63;;;12.32;;
24567;SDS011;12731;52.182;8.716;2024-01-30T04:02:54;15.60;;;11.77;;
24567;SDS011;12731;52.182;8.716;2024-01-30T04:05:21;17.92;;;11.85;;
24567;SDS011;12731;52.182;8.716;2024-01-30T04:07:47;15.70;;;11.30;;
24567;SDS011;12731;52.182;8.716;2024-01-30T04:10:14;14.43;;;11.45;;
24567;SDS011;12731;52.182;8.716;2024-01-30T04:12:40;17.85;;;11.20;;
24567;SDS011;12731;52.182;8.716;2024-01-30T04:15:07;18.52;;;11.68;;
24567;SDS011;12731;52.182;8.716;2024-01-30T04:17:33;16.00;;;11.23;;
24567;SDS011;12731;52.182;8.716;2024-01-30T04:20:00;17.15;;;11.43;;
24567;SDS011;12731;52.182;8.716;2024-01-30T04:22:27;15.05;;;10.90;;
24567;SDS011;12731;52.182;8.716;2024-01-30T04:24:53;14.05;;;10.38;;
24567;SDS011;12731;52.182;8.716;2024-01-30T04:27:20;14.50;;;10.57;;
24567;SDS011;12731;52.182;8.716;2024-01-30T04:29:46;15.20;;;10.27;;
24567;SDS011;12731;52.182;8.716;2024-01-30T04:32:13;17.73;;;11.13;;
24567;SDS011;12731;52.182;8.716;2024-01-30T04:34:39;14.55;;;10.70;;
24567;SDS011;12731;52.182;8.716;2024-01-30T04:37:06;14.50;;;10.32;;
24567;SDS011;12731;52.182;8.716;2024-01-30T04:39:33;15.18;;;11.13;;
24567;SDS011;12731;52.182;8.716;2024-01-30T04:41:59;15.77;;;10.80;;
24567;SDS011;12731;52.182;8.716;2024-01-30T04:44:26;15.98;;;10.43;;
24567;SDS011;12731;52.182;8.716;2024-01-30T04:46:52;15.15;;;11.23;;
24567;SDS011;12731;52.182;8.716;2024-01-30T04:49:19;15.63;;;10.43;;
24567;SDS011;12731;52.182;8.716;2024-01-30T04:51:45;15.93;;;11.25;;
24567;SDS011;12731;52.182;8.716;2024-01-30T04:54:11;15.02;;;10.48;;
24567;SDS011;12731;52.182;8.716;2024-01-30T04:56:38;14.57;;;10.45;;
24567;SDS011;12731;52.182;8.716;2024-01-30T04:59:05;15.48;;;10.45;;
24567;SDS011;12731;52.182;8.716;2024-01-30T05:01:32;15.50;;;10.80;;
24567;SDS011;12731;52.182;8.716;2024-01-30T05:03:58;14.75;;;10.57;;
24567;SDS011;12731;52.182;8.716;2024-01-30T05:06:25;14.75;;;10.02;;
24567;SDS011;12731;52.182;8.716;2024-01-30T05:08:53;16.90;;;11.00;;
24567;SDS011;12731;52.182;8.716;2024-01-30T05:11:19;16.95;;;12.02;;
24567;SDS011;12731;52.182;8.716;2024-01-30T05:13:46;14.55;;;11.52;;
24567;SDS011;12731;52.182;8.716;2024-01-30T05:16:12;15.98;;;11.63;;
24567;SDS011;12731;52.182;8.716;2024-01-30T05:18:39;16.42;;;12.07;;
24567;SDS011;12731;52.182;8.716;2024-01-30T05:21:05;16.90;;;12.10;;
24567;SDS011;12731;52.182;8.716;2024-01-30T05:23:32;16.63;;;11.93;;
24567;SDS011;12731;52.182;8.716;2024-01-30T05:25:59;16.27;;;12.32;;
24567;SDS011;12731;52.182;8.716;2024-01-30T05:28:27;17.70;;;12.45;;
24567;SDS011;12731;52.182;8.716;2024-01-30T05:30:53;19.05;;;12.30;;
24567;SDS011;12731;52.182;8.716;2024-01-30T05:33:20;16.50;;;12.50;;
24567;SDS011;12731;52.182;8.716;2024-01-30T05:35:46;16.45;;;11.88;;
24567;SDS011;12731;52.182;8.716;2024-01-30T05:38:13;17.02;;;12.65;;
24567;SDS011;12731;52.182;8.716;2024-01-30T05:40:39;16.52;;;11.60;;
24567;SDS011;12731;52.182;8.716;2024-01-30T05:43:06;16.00;;;11.52;;
24567;SDS011;12731;52.182;8.716;2024-01-30T05:45:34;16.92;;;11.43;;
24567;SDS011;12731;52.182;8.716;2024-01-30T05:48:01;15.75;;;11.30;;
24567;SDS011;12731;52.182;8.716;2024-01-30T05:50:28;15.00;;;10.95;;
24567;SDS011;12731;52.182;8.716;2024-01-30T05:52:55;16.40;;;10.50;;
24567;SDS011;12731;52.182;8.716;2024-01-30T05:55:21;13.55;;;9.68;;
24567;SDS011;12731;52.182;8.716;2024-01-30T05:57:48;13.93;;;10.02;;
24567;SDS011;12731;52.182;8.716;2024-01-30T06:00:14;12.90;;;9.13;;
24567;SDS011;12731;52.182;8.716;2024-01-30T06:02:41;11.68;;;9.52;;
24567;SDS011;12731;52.182;8.716;2024-01-30T06:05:08;15.00;;;9.85;;
24567;SDS011;12731;52.182;8.716;2024-01-30T06:07:34;15.57;;;9.90;;
24567;SDS011;12731;52.182;8.716;2024-01-30T06:10:02;12.77;;;9.18;;
24567;SDS011;12731;52.182;8.716;2024-01-30T06:12:29;11.90;;;8.80;;
24567;SDS011;12731;52.182;8.716;2024-01-30T06:14:56;12.40;;;9.00;;
24567;SDS011;12731;52.182;8.716;2024-01-30T06:17:23;14.68;;;9.43;;
24567;SDS011;12731;52.182;8.716;2024-01-30T06:19:49;13.27;;;8.98;;
24567;SDS011;12731;52.182;8.716;2024-01-30T06:22:16;16.67;;;9.43;;
24567;SDS011;12731;52.182;8.716;2024-01-30T06:24:43;12.88;;;8.88;;
24567;SDS011;12731;52.182;8.716;2024-01-30T06:27:11;16.27;;;10.23;;
24567;SDS011;12731;52.182;8.716;2024-01-30T06:29:37;13.77;;;9.45;;
24567;SDS011;12731;52.182;8.716;2024-01-30T06:32:04;12.27;;;9.10;;
24567;SDS011;12731;52.182;8.716;2024-01-30T06:34:31;15.32;;;8.88;;
24567;SDS011;12731;52.182;8.716;2024-01-30T06:36:57;12.20;;;8.90;;
24567;SDS011;12731;52.182;8.716;2024-01-30T06:39:24;13.98;;;9.05;;
24567;SDS011;12731;52.182;8.716;2024-01-30T06:41:51;12.43;;;8.77;;
24567;SDS011;12731;52.182;8.716;2024-01-30T06:44:17;13.85;;;9.25;;
24567;SDS011;12731;52.182;8.716;2024-01-30T06:46:44;13.13;;;8.95;;
24567;SDS011;12731;52.182;8.716;2024-01-30T06:49:10;13.10;;;9.02;;
24567;SDS011;12731;52.182;8.716;2024-01-30T06:51:37;12.75;;;8.82;;
24567;SDS011;12731;52.182;8.716;2024-01-30T06:54:03;14.27;;;8.90;;
24567;SDS011;12731;52.182;8.716;2024-01-30T06:56:30;12.82;;;9.13;;
24567;SDS011;12731;52.182;8.716;2024-01-30T06:58:56;13.40;;;9.38;;
24567;SDS011;12731;52.182;8.716;2024-01-30T07:01:28;12.57;;;8.65;;
24567;SDS011;12731;52.182;8.716;2024-01-30T07:03:55;14.05;;;9.68;;
24567;SDS011;12731;52.182;8.716;2024-01-30T07:06:22;14.43;;;9.48;;
24567;SDS011;12731;52.182;8.716;2024-01-30T07:08:49;13.48;;;9.10;;
24567;SDS011;12731;52.182;8.716;2024-01-30T07:11:19;12.43;;;9.00;;
24567;SDS011;12731;52.182;8.716;2024-01-30T07:16:15;11.23;;;8.25;;
24567;SDS011;12731;52.182;8.716;2024-01-30T07:18:41;12.52;;;8.80;;
24567;SDS011;12731;52.182;8.716;2024-01-30T07:21:08;13.05;;;8.88;;
24567;SDS011;12731;52.182;8.716;2024-01-30T07:23:34;12.18;;;8.23;;
24567;SDS011;12731;52.182;8.716;2024-01-30T07:26:01;12.00;;;8.23;;
24567;SDS011;12731;52.182;8.716;2024-01-30T07:28:27;13.65;;;8.50;;
24567;SDS011;12731;52.182;8.716;2024-01-30T07:30:54;14.98;;;9.10;;
24567;SDS011;12731;52.182;8.716;2024-01-30T07:33:20;13.93;;;9.07;;
24567;SDS011;12731;52.182;8.716;2024-01-30T07:35:47;12.15;;;9.02;;
24567;SDS011;12731;52.182;8.716;2024-01-30T07:38:14;12.23;;;8.93;;
24567;SDS011;12731;52.182;8.716;2024-01-30T07:40:40;13.60;;;9.13;;
24567;SDS011;12731;52.182;8.716;2024-01-30T07:43:07;11.38;;;8.95;;
24567;SDS011;12731;52.182;8.716;2024-01-30T07:45:34;11.35;;;8.98;;
24567;SDS011;12731;52.182;8.716;2024-01-30T07:48:00;15.00;;;9.30;;
24567;SDS011;12731;52.182;8.716;2024-01-30T07:50:27;12.75;;;9.07;;
24567;SDS011;12731;52.182;8.716;2024-01-30T07:52:55;13.18;;;8.50;;
24567;SDS011;12731;52.182;8.716;2024-01-30T07:55:22;13.70;;;9.50;;
24567;SDS011;12731;52.182;8.716;2024-01-30T07:57:57;13.90;;;9.50;;
24567;SDS011;12731;52.182;8.716;2024-01-30T08:00:25;14.43;;;9.15;;
24567;SDS011;12731;52.182;8.716;2024-01-30T08:02:51;14.45;;;8.90;;
24567;SDS011;12731;52.182;8.716;2024-01-30T08:05:20;11.07;;;8.07;;
24567;SDS011;12731;52.182;8.716;2024-01-30T08:07:49;11.20;;;7.95;;
24567;SDS011;12731;52.182;8.716;2024-01-30T08:10:15;11.70;;;7.78;;
24567;SDS011;12731;52.182;8.716;2024-01-30T08:12:44;12.82;;;8.07;;
24567;SDS011;12731;52.182;8.716;2024-01-30T08:15:11;14.10;;;8.20;;
24567;SDS011;12731;52.182;8.716;2024-01-30T08:17:38;12.10;;;8.15;;
24567;SDS011;12731;52.182;8.716;2024-01-30T08:20:05;13.02;;;8.80;;
24567;SDS011;12731;52.182;8.716;2024-01-30T08:22:33;13.48;;;8.32;;
24567;SDS011;12731;52.182;8.716;2024-01-30T08:25:00;11.25;;;8.48;;
24567;SDS011;12731;52.182;8.716;2024-01-30T08:27:26;11.05;;;7.60;;
24567;SDS011;12731;52.182;8.716;2024-01-30T08:29:53;9.45;;;7.97;;
24567;SDS011;12731;52.182;8.716;2024-01-30T08:32:19;11.25;;;8.50;;
24567;SDS011;12731;52.182;8.716;2024-01-30T08:34:46;11.02;;;8.10;;
24567;SDS011;12731;52.182;8.716;2024-01-30T08:37:12;11.10;;;8.30;;
24567;SDS011;12731;52.182;8.716;2024-01-30T08:39:43;11.38;;;7.65;;
24567;SDS011;12731;52.182;8.716;2024-01-30T08:42:10;15.38;;;7.78;;
24567;SDS011;12731;52.182;8.716;2024-01-30T08:44:38;10.93;;;8.00;;
24567;SDS011;12731;52.182;8.716;2024-01-30T08:47:04;11.10;;;7.45;;
24567;SDS011;12731;52.182;8.716;2024-01-30T08:49:31;10.05;;;7.93;;
24567;SDS011;12731;52.182;8.716;2024-01-30T08:51:58;12.60;;;8.65;;
24567;SDS011;12731;52.182;8.716;2024-01-30T08:54:24;13.23;;;8.55;;
24567;SDS011;12731;52.182;8.716;2024-01-30T08:56:51;12.77;;;8.18;;
24567;SDS011;12731;52.182;8.716;2024-01-30T08:59:19;11.27;;;7.63;;
24567;SDS011;12731;52.182;8.716;2024-01-30T09:01:45;11.32;;;7.57;;
24567;SDS011;12731;52.182;8.716;2024-01-30T09:04:28;11.48;;;7.45;;
24567;SDS011;12731;52.182;8.716;2024-01-30T09:06:55;11.25;;;7.28;;
24567;SDS011;12731;52.182;8.716;2024-01-30T09:09:21;11.32;;;7.90;;
24567;SDS011;12731;52.182;8.716;2024-01-30T09:11:48;10.60;;;7.40;;
24567;SDS011;12731;52.182;8.716;2024-01-30T09:14:14;11.15;;;7.68;;
24567;SDS011;12731;52.182;8.716;2024-01-30T09:16:41;11.02;;;7.68;;
24567;SDS011;12731;52.182;8.716;2024-01-30T09:19:07;11.32;;;7.30;;
24567;SDS011;12731;52.182;8.716;2024-01-30T09:21:34;9.68;;;7.07;;
24567;SDS011;12731;52.182;8.716;2024-01-30T09:24:01;10.23;;;7.15;;
24567;SDS011;12731;52.182;8.716;2024-01-30T09:26:30;9.98;;;6.68;;
24567;SDS011;12731;52.182;8.716;2024-01-30T09:28:56;9.45;;;7.13;;
24567;SDS011;12731;52.182;8.716;2024-01-30T09:31:23;8.68;;;6.65;;
24567;SDS011;12731;52.182;8.716;2024-01-30T09:33:49;10.85;;;6.43;;
24567;SDS011;12731;52.182;8.716;2024-01-30T09:36:17;9.63;;;6.63;;
24567;SDS011;12731;52.182;8.716;2024-01-30T09:38:46;8.90;;;6.97;;
24567;SDS011;12731;52.182;8.716;2024-01-30T09:41:12;8.52;;;6.47;;
24567;SDS011;12731;52.182;8.716;2024-01-30T09:43:39;11.88;;;6.60;;
24567;SDS011;12731;52.182;8.716;2024-01-30T09:46:11;8.30;;;6.00;;
24567;SDS011;12731;52.182;8.716;2024-01-30T09:48:40;7.55;;;5.72;;
24567;SDS011;12731;52.182;8.716;2024-01-30T09:51:08;8.00;;;5.63;;
24567;SDS011;12731;52.182;8.716;2024-01-30T09:53:35;8.20;;;5.90;;
24567;SDS011;12731;52.182;8.716;2024-01-30T09:56:03;10.40;;;6.45;;
24567;SDS011;12731;52.182;8.716;2024-01-30T09:58:30;9.15;;;6.32;;
24567;SDS011;12731;52.182;8.716;2024-01-30T10:00:56;10.38;;;6.82;;
24567;SDS011;12731;52.182;8.716;2024-01-30T10:03:25;9.18;;;6.35;;
24567;SDS011;12731;52.182;8.716;2024-01-30T10:05:51;8.02;;;6.00;;
24567;SDS011;12731;52.182;8.716;2024-01-30T10:08:19;8.63;;;6.85;;
24567;SDS011;12731;52.182;8.716;2024-01-30T10:10:46;10.23;;;6.45;;
24567;SDS011;12731;52.182;8.716;2024-01-30T10:13:13;8.98;;;6.55;;
24567;SDS011;12731;52.182;8.716;2024-01-30T10:15:40;7.53;;;6.20;;
24567;SDS011;12731;52.182;8.716;2024-01-30T10:18:08;10.20;;;6.53;;
24567;SDS011;12731;52.182;8.716;2024-01-30T10:20:36;8.70;;;6.10;;
24567;SDS011;12731;52.182;8.716;2024-01-30T10:23:03;10.80;;;7.07;;
24567;SDS011;12731;52.182;8.716;2024-01-30T10:25:33;10.30;;;7.85;;
24567;SDS011;12731;52.182;8.716;2024-01-30T10:28:00;8.98;;;6.90;;
24567;SDS011;12731;52.182;8.716;2024-01-30T10:30:27;11.60;;;7.45;;
24567;SDS011;12731;52.182;8.716;2024-01-30T10:32:54;10.00;;;7.60;;
24567;SDS011;12731;52.182;8.716;2024-01-30T10:35:20;9.95;;;7.45;;
24567;SDS011;12731;52.182;8.716;2024-01-30T10:37:47;10.55;;;7.50;;
24567;SDS011;12731;52.182;8.716;2024-01-30T10:40:14;11.15;;;7.90;;
24567;SDS011;12731;52.182;8.716;2024-01-30T10:42:43;10.98;;;8.38;;
24567;SDS011;12731;52.182;8.716;2024-01-30T10:45:13;15.13;;;8.23;;
24567;SDS011;12731;52.182;8.716;2024-01-30T10:47:43;12.05;;;8.55;;
24567;SDS011;12731;52.182;8.716;2024-01-30T10:50:14;11.73;;;8.75;;
24567;SDS011;12731;52.182;8.716;2024-01-30T10:52:42;11.55;;;8.25;;
24567;SDS011;12731;52.182;8.716;2024-01-30T10:55:10;11.68;;;8.45;;
24567;SDS011;12731;52.182;8.716;2024-01-30T10:57:37;12.73;;;7.60;;
24567;SDS011;12731;52.182;8.716;2024-01-30T11:00:04;10.85;;;7.47;;
24567;SDS011;12731;52.182;8.716;2024-01-30T11:02:40;9.43;;;7.47;;
24567;SDS011;12731;52.182;8.716;2024-01-30T11:05:08;11.77;;;8.00;;
24567;SDS011;12731;52.182;8.716;2024-01-30T11:07:34;10.90;;;7.47;;
24567;SDS011;12731;52.182;8.716;2024-01-30T11:10:02;9.48;;;7.25;;
24567;SDS011;12731;52.182;8.716;2024-01-30T11:12:31;9.85;;;7.20;;
24567;SDS011;12731;52.182;8.716;2024-01-30T11:15:16;10.48;;;7.60;;
24567;SDS011;12731;52.182;8.716;2024-01-30T11:22:44;11.00;;;6.70;;
24567;SDS011;12731;52.182;8.716;2024-01-30T11:25:12;9.68;;;6.72;;
24567;SDS011;12731;52.182;8.716;2024-01-30T11:27:40;13.18;;;7.03;;
24567;SDS011;12731;52.182;8.716;2024-01-30T11:30:07;8.05;;;6.20;;
24567;SDS011;12731;52.182;8.716;2024-01-30T11:32:34;9.38;;;6.40;;
24567;SDS011;12731;52.182;8.716;2024-01-30T11:35:02;9.40;;;6.25;;
24567;SDS011;12731;52.182;8.716;2024-01-30T11:37:32;10.02;;;6.75;;
24567;SDS011;12731;52.182;8.716;2024-01-30T11:40:03;11.10;;;6.57;;
24567;SDS011;12731;52.182;8.716;2024-01-30T11:42:30;9.70;;;6.53;;
24567;SDS011;12731;52.182;8.716;2024-01-30T11:44:59;10.15;;;6.72;;
24567;SDS011;12731;52.182;8.716;2024-01-30T11:47:27;10.13;;;6.70;;
24567;SDS011;12731;52.182;8.716;2024-01-30T11:49:54;9.02;;;6.13;;
24567;SDS011;12731;52.182;8.716;2024-01-30T11:52:24;10.98;;;6.13;;
24567;SDS011;12731;52.182;8.716;2024-01-30T11:54:50;8.30;;;5.88;;
24567;SDS011;12731;52.182;8.716;2024-01-30T11:57:17;11.50;;;6.10;;
24567;SDS011;12731;52.182;8.716;2024-01-30T11:59:43;8.02;;;6.20;;
24567;SDS011;12731;52.182;8.716;2024-01-30T12:02:15;10.60;;;6.28;;
24567;SDS011;12731;52.182;8.716;2024-01-30T12:04:42;11.65;;;6.03;;
24567;SDS011;12731;52.182;8.716;2024-01-30T12:07:09;10.13;;;6.45;;
24567;SDS011;12731;52.182;8.716;2024-01-30T12:09:36;11.55;;;6.57;;
24567;SDS011;12731;52.182;8.716;2024-01-30T12:12:02;10.82;;;6.30;;
24567;SDS011;12731;52.182;8.716;2024-01-30T12:14:29;11.57;;;6.35;;
24567;SDS011;12731;52.182;8.716;2024-01-30T12:16:55;9.13;;;6.20;;
24567;SDS011;12731;52.182;8.716;2024-01-30T12:19:22;11.90;;;6.38;;
24567;SDS011;12731;52.182;8.716;2024-01-30T12:21:59;9.05;;;6.47;;
24567;SDS011;12731;52.182;8.716;2024-01-30T12:24:29;10.23;;;6.40;;
24567;SDS011;12731;52.182;8.716;2024-01-30T12:29:25;11.15;;;5.82;;
24567;SDS011;12731;52.182;8.716;2024-01-30T12:31:56;11.13;;;6.00;;
24567;SDS011;12731;52.182;8.716;2024-01-30T12:34:24;9.02;;;6.78;;
24567;SDS011;12731;52.182;8.716;2024-01-30T12:36:51;8.80;;;6.55;;
24567;SDS011;12731;52.182;8.716;2024-01-30T12:39:17;9.90;;;6.43;;
24567;SDS011;12731;52.182;8.716;2024-01-30T12:41:44;12.73;;;7.28;;
24567;SDS011;12731;52.182;8.716;2024-01-30T12:44:13;9.80;;;6.45;;
24567;SDS011;12731;52.182;8.716;2024-01-30T12:46:39;12.18;;;6.68;;
24567;SDS011;12731;52.182;8.716;2024-01-30T12:49:06;12.45;;;7.72;;
24567;SDS011;12731;52.182;8.716;2024-01-30T12:51:34;9.70;;;6.45;;
24567;SDS011;12731;52.182;8.716;2024-01-30T12:54:04;10.20;;;6.90;;
24567;SDS011;12731;52.182;8.716;2024-01-30T12:56:31;12.05;;;7.25;;
24567;SDS011;12731;52.182;8.716;2024-01-30T12:58:57;11.52;;;7.80;;
24567;SDS011;12731;52.182;8.716;2024-01-30T13:01:24;10.70;;;6.63;;
24567;SDS011;12731;52.182;8.716;2024-01-30T13:03:50;11.27;;;7.30;;
24567;SDS011;12731;52.182;8.716;2024-01-30T13:06:18;12.60;;;7.65;;
24567;SDS011;12731;52.182;8.716;2024-01-30T13:08:45;12.98;;;7.75;;
24567;SDS011;12731;52.182;8.716;2024-01-30T13:11:11;14.00;;;7.35;;
24567;SDS011;12731;52.182;8.716;2024-01-30T13:13:46;12.23;;;7.40;;
24567;SDS011;12731;52.182;8.716;2024-01-30T13:16:13;10.55;;;6.88;;
24567;SDS011;12731;52.182;8.716;2024-01-30T13:18:39;11.23;;;7.57;;
24567;SDS011;12731;52.182;8.716;2024-01-30T13:21:06;12.32;;;7.60;;
24567;SDS011;12731;52.182;8.716;2024-01-30T13:23:32;10.15;;;7.43;;
24567;SDS011;12731;52.182;8.716;2024-01-30T13:25:59;14.73;;;7.85;;
24567;SDS011;12731;52.182;8.716;2024-01-30T13:28:25;11.30;;;8.02;;
24567;SDS011;12731;52.182;8.716;2024-01-30T13:30:52;9.93;;;7.68;;
24567;SDS011;12731;52.182;8.716;2024-01-30T13:33:19;13.10;;;8.40;;
24567;SDS011;12731;52.182;8.716;2024-01-30T13:35:45;12.38;;;7.85;;
24567;SDS011;12731;52.182;8.716;2024-01-30T13:38:12;13.05;;;7.80;;
24567;SDS011;12731;52.182;8.716;2024-01-30T13:40:39;12.32;;;8.32;;
24567;SDS011;12731;52.182;8.716;2024-01-30T13:43:06;11.52;;;7.38;;
24567;SDS011;12731;52.182;8.716;2024-01-30T13:45:33;14.55;;;8.35;;
24567;SDS011;12731;52.182;8.716;2024-01-30T13:47:59;14.05;;;8.07;;
24567;SDS011;12731;52.182;8.716;2024-01-30T13:50:26;13.38;;;8.30;;
24567;SDS011;12731;52.182;8.716;2024-01-30T13:52:52;14.45;;;8.50;;
24567;SDS011;12731;52.182;8.716;2024-01-30T13:55:19;11.88;;;8.75;;
24567;SDS011;12731;52.182;8.716;2024-01-30T13:57:46;14.18;;;8.85;;
24567;SDS011;12731;52.182;8.716;2024-01-30T14:00:15;12.32;;;9.10;;
24567;SDS011;12731;52.182;8.716;2024-01-30T14:02:42;15.10;;;9.30;;
24567;SDS011;12731;52.182;8.716;2024-01-30T14:05:09;13.77;;;8.75;;
24567;SDS011;12731;52.182;8.716;2024-01-30T14:07:36;36.53;;;18.25;;
24567;SDS011;12731;52.182;8.716;2024-01-30T14:10:04;20.02;;;12.38;;
24567;SDS011;12731;52.182;8.716;2024-01-30T14:12:36;16.98;;;11.32;;
24567;SDS011;12731;52.182;8.716;2024-01-30T14:15:03;21.20;;;11.73;;
24567;SDS011;12731;52.182;8.716;2024-01-30T14:17:41;17.38;;;10.68;;
24567;SDS011;12731;52.182;8.716;2024-01-30T14:20:07;16.42;;;10.63;;
24567;SDS011;12731;52.182;8.716;2024-01-30T14:22:34;17.30;;;11.02;;
24567;SDS011;12731;52.182;8.716;2024-01-30T14:25:00;19.20;;;10.52;;
24567;SDS011;12731;52.182;8.716;2024-01-30T14:27:29;14.60;;;10.45;;
24567;SDS011;12731;52.182;8.716;2024-01-30T14:29:56;16.15;;;10.80;;
24567;SDS011;12731;52.182;8.716;2024-01-30T14:32:23;14.73;;;9.95;;
24567;SDS011;12731;52.182;8.716;2024-01-30T14:34:50;17.05;;;10.50;;
24567;SDS011;12731;52.182;8.716;2024-01-30T14:37:17;18.13;;;11.27;;
24567;SDS011;12731;52.182;8.716;2024-01-30T14:39:43;18.17;;;11.60;;